| time (UTC) | temp F | wind direction | speed MPH | gust MPH | rain 1hr in | rain 24hr in | rain mn in | humidity % | barometer mb |
| 20260506071544 | 54 | 0 | 0.0 | 0.0 | 0.00 | 0.00 | 0.00 | 86 | 1019.3 |
| 20260506061537 | 56 | 0 | 0.0 | 0.0 | 0.00 | 0.00 | 0.00 | 85 | 1019.0 |
| 20260506044550 | 57 | 0 | 0.0 | 0.0 | 0.00 | 0.00 | 0.00 | 84 | 1018.5 |
| 20260506043035 | 57 | 0 | 0.0 | 0.0 | 0.00 | 0.00 | 0.00 | 84 | 1018.4 |
| 20260506041547 | 57 | 0 | 0.0 | 0.0 | 0.00 | 0.00 | 0.00 | 83 | 1018.3 |
| 20260506040042 | 57 | 0 | 0.0 | 0.0 | 0.00 | 0.00 | 0.00 | 83 | 1018.2 |
| 20260506034535 | 57 | 0 | 0.0 | 0.0 | 0.00 | 0.00 | 0.00 | 83 | 1018.0 |
| 20260506033034 | 57 | 0 | 0.0 | 0.0 | 0.00 | 0.00 | 0.00 | 83 | 1017.8 |
| 20260506031534 | 57 | 0 | 0.0 | 0.0 | 0.00 | 0.00 | 0.00 | 82 | 1017.6 |
| 20260506030046 | 57 | 0 | 0.0 | 2.0 | 0.00 | 0.00 | 0.00 | 82 | 1017.4 |
| 20260506024538 | 58 | 5 | 0.0 | 2.0 | 0.00 | 0.00 | 0.00 | 81 | 1017.4 |
| 20260506023037 | 58 | 0 | 0.0 | 5.0 | 0.00 | 0.00 | 0.00 | 80 | 1017.5 |
| 20260506021534 | 58 | 294 | 1.0 | 6.0 | 0.00 | 0.00 | 0.00 | 79 | 1017.3 |
| 20260506020035 | 58 | 0 | 0.0 | 5.0 | 0.00 | 0.00 | 0.00 | 79 | 1017.2 |
| 20260506014536 | 58 | 0 | 1.0 | 4.0 | 0.00 | 0.00 | 0.00 | 77 | 1017.2 |
| 20260506013041 | 59 | 5 | 0.0 | 5.0 | 0.00 | 0.00 | 0.00 | 77 | 1017.2 |
| 20260506011535 | 59 | 0 | 1.0 | 6.0 | 0.00 | 0.00 | 0.00 | 75 | 1017.2 |
| 20260506010035 | 60 | 0 | 2.0 | 8.0 | 0.00 | 0.00 | 0.00 | 75 | 1017.1 |
| 20260506004604 | 61 | 252 | 2.0 | 7.0 | 0.00 | 0.00 | 0.00 | 76 | 1017.1 |
| 20260506003035 | 61 | 238 | 2.0 | 7.0 | 0.00 | 0.00 | 0.00 | 77 | 1017.0 |
| 20260506001536 | 61 | 225 | 2.0 | 7.0 | 0.00 | 0.00 | 0.00 | 75 | 1017.0 |
| 20260506000034 | 62 | 255 | 3.0 | 7.0 | 0.00 | 0.00 | 0.00 | 74 | 1016.9 |
| 20260505234604 | 62 | 202 | 3.0 | 7.0 | 0.00 | 0.00 | 0.00 | 74 | 1016.7 |
| 20260505233035 | 60 | 221 | 3.0 | 8.0 | 0.00 | 0.00 | 0.00 | 76 | 1016.8 |
| 20260505231536 | 61 | 238 | 3.0 | 8.0 | 0.00 | 0.00 | 0.00 | 74 | 1016.9 |
| 20260505230035 | 61 | 232 | 3.0 | 8.0 | 0.00 | 0.00 | 0.00 | 75 | 1016.9 |
| 20260505224536 | 61 | 228 | 2.0 | 7.0 | 0.00 | 0.00 | 0.00 | 77 | 1017.1 |
| 20260505223046 | 59 | 234 | 3.0 | 8.0 | 0.00 | 0.00 | 0.00 | 79 | 1017.3 |
| 20260505221544 | 59 | 219 | 2.0 | 5.0 | 0.00 | 0.00 | 0.00 | 79 | 1017.3 |
| 20260505220035 | 59 | 202 | 3.0 | 7.0 | 0.00 | 0.00 | 0.00 | 79 | 1017.1 |
| 20260505214540 | 58 | 215 | 2.0 | 5.0 | 0.00 | 0.00 | 0.00 | 81 | 1017.4 |
| 20260505213037 | 59 | 260 | 4.0 | 9.0 | 0.00 | 0.00 | 0.00 | 79 | 1017.6 |
| 20260505211536 | 59 | 250 | 1.0 | 6.0 | 0.00 | 0.00 | 0.00 | 79 | 1017.5 |
| 20260505210035 | 59 | 231 | 2.0 | 5.0 | 0.00 | 0.00 | 0.00 | 79 | 1017.4 |
| 20260505204535 | 59 | 212 | 1.0 | 4.0 | 0.00 | 0.00 | 0.00 | 79 | 1017.4 |
| 20260505203033 | 58 | 215 | 2.0 | 6.0 | 0.00 | 0.00 | 0.00 | 78 | 1017.5 |
| 20260505201533 | 59 | 237 | 3.0 | 8.0 | 0.00 | 0.00 | 0.00 | 77 | 1017.6 |
| 20260505200037 | 59 | 240 | 2.0 | 6.0 | 0.00 | 0.00 | 0.00 | 79 | 1017.6 |
| 20260505194538 | 59 | 247 | 3.0 | 8.0 | 0.00 | 0.00 | 0.00 | 78 | 1017.6 |
| 20260505193035 | 59 | 247 | 2.0 | 7.0 | 0.00 | 0.00 | 0.00 | 78 | 1017.6 |
| 20260505191535 | 59 | 230 | 2.0 | 7.0 | 0.00 | 0.00 | 0.00 | 80 | 1017.8 |
| 20260505190047 | 58 | 229 | 3.0 | 7.0 | 0.00 | 0.00 | 0.00 | 80 | 1017.8 |
| 20260505184536 | 58 | 225 | 1.0 | 5.0 | 0.00 | 0.00 | 0.00 | 81 | 1017.7 |
| 20260505183044 | 58 | 219 | 2.0 | 7.0 | 0.00 | 0.00 | 0.00 | 80 | 1017.7 |
| 20260505181538 | 58 | 234 | 2.0 | 5.0 | 0.00 | 0.00 | 0.00 | 80 | 1017.5 |
| 20260505180036 | 58 | 248 | 2.0 | 6.0 | 0.00 | 0.00 | 0.00 | 81 | 1017.3 |
| 20260505174534 | 57 | 219 | 1.0 | 4.0 | 0.00 | 0.00 | 0.00 | 80 | 1017.2 |
| 20260505173043 | 57 | 0 | 0.0 | 4.0 | 0.00 | 0.00 | 0.00 | 81 | 1017.2 |
| 20260505171536 | 56 | 0 | 0.0 | 2.0 | 0.00 | 0.00 | 0.00 | 81 | 1017.2 |
| 20260505170037 | 56 | 320 | 0.0 | 3.0 | 0.00 | 0.00 | 0.00 | 81 | 1017.2 |
| 20260505164535 | 56 | 0 | 0.0 | 3.0 | 0.00 | 0.00 | 0.00 | 82 | 1016.9 |
| 20260505163033 | 56 | 0 | 0.0 | 4.0 | 0.00 | 0.00 | 0.00 | 82 | 1016.7 |
| 20260505161530 | 56 | 0 | 0.0 | 4.0 | 0.00 | 0.00 | 0.00 | 82 | 1016.7 |
| 20260505153040 | 55 | 0 | 0.0 | 2.0 | 0.00 | 0.00 | 0.00 | 81 | 1016.6 |
| 20260505151536 | 55 | 0 | 0.0 | 4.0 | 0.00 | 0.00 | 0.00 | 82 | 1016.5 |
| 20260505124533 | 52 | 0 | 0.0 | 0.0 | 0.00 | 0.00 | 0.00 | 84 | 1015.6 |
| 20260505123058 | 52 | 0 | 0.0 | 0.0 | 0.00 | 0.00 | 0.00 | 84 | 1015.6 |
| 20260505121541 | 52 | 0 | 0.0 | 0.0 | 0.00 | 0.00 | 0.00 | 84 | 1015.6 |
| 20260505120046 | 52 | 0 | 0.0 | 1.0 | 0.00 | 0.00 | 0.00 | 84 | 1015.4 |
| 20260505114536 | 52 | 0 | 0.0 | 1.0 | 0.00 | 0.00 | 0.00 | 84 | 1015.4 |
| 20260505113034 | 52 | 0 | 0.0 | 1.0 | 0.00 | 0.00 | 0.00 | 84 | 1015.4 |
| 20260505111538 | 52 | 80 | 0.0 | 3.0 | 0.00 | 0.00 | 0.00 | 84 | 1015.5 |
| 20260505101541 | 53 | 0 | 0.0 | 2.0 | 0.00 | 0.00 | 0.00 | 85 | 1015.6 |
| 20260505100040 | 53 | 0 | 0.0 | 5.0 | 0.00 | 0.00 | 0.00 | 85 | 1015.7 |
| 20260505094537 | 52 | 283 | 1.0 | 6.0 | 0.00 | 0.01 | 0.00 | 86 | 1015.8 |
| 20260505093036 | 52 | 103 | 0.0 | 4.0 | 0.00 | 0.01 | 0.00 | 86 | 1015.9 |
| 20260505091538 | 52 | 0 | 0.0 | 4.0 | 0.00 | 0.01 | 0.00 | 86 | 1015.9 |
| 20260505090036 | 52 | 0 | 0.0 | 0.0 | 0.00 | 0.01 | 0.00 | 86 | 1016.0 |
| 20260505084541 | 52 | 0 | 0.0 | 0.0 | 0.00 | 0.04 | 0.00 | 86 | 1016.0 |
| 20260505083037 | 52 | 0 | 0.0 | 0.0 | 0.00 | 0.04 | 0.00 | 86 | 1016.1 |
| 20260505081537 | 53 | 0 | 0.0 | 0.0 | 0.00 | 0.04 | 0.00 | 86 | 1016.3 |
| 20260505080036 | 52 | 0 | 0.0 | 0.0 | 0.00 | 0.04 | 0.00 | 87 | 1016.3 |
| 20260505074537 | 52 | 0 | 0.0 | 0.0 | 0.00 | 0.04 | 0.00 | 87 | 1016.2 |
| 20260505073042 | 52 | 0 | 0.0 | 0.0 | 0.00 | 0.04 | 0.00 | 86 | 1016.1 |